Time;durP1;ratioP1;P1;durP2;ratioP2;P2;SDS_P1;SDS_P2;PMS_P1;PMS_P2;Temp;Humidity;BMP_temperature;BMP_pressure;BME280_temperature;BME280_humidity;BME280_pressure;Samples;Min_cycle;Max_cycle;Signal;HPM_P1;HPM_P2
2022/06/22 06:12:49;;;;;;;22.27;4.75;;;;;;;;;;5115805;23;20055;-69
2022/06/22 06:15:15;;;;;;;14.90;4.65;;;;;;;;;;4941232;29;20024;-69
2022/06/22 06:17:43;;;;;;;22.95;5.00;;;;;;;;;;4940481;29;20024;-67
2022/06/22 06:20:24;;;;;;;23.27;4.80;;;;;;;;;;4941128;29;20035;-66
2022/06/22 06:22:54;;;;;;;30.83;5.45;;;;;;;;;;4946403;29;20039;-69
2022/06/22 06:28:10;;;;;;;23.15;5.00;;;;;;;;;;4935768;29;20503;-67
2022/06/22 06:30:45;;;;;;;20.95;5.10;;;;;;;;;;4937757;29;20436;-68
2022/06/22 06:33:28;;;;;;;18.77;4.75;;;;;;;;;;4939885;29;20046;-67
2022/06/22 06:35:57;;;;;;;25.20;5.30;;;;;;;;;;4946615;29;20023;-69
2022/06/22 06:38:28;;;;;;;26.77;5.22;;;;;;;;;;4944625;29;20032;-69
2022/06/22 06:41:01;;;;;;;21.90;5.05;;;;;;;;;;4939503;29;20038;-68
2022/06/22 06:43:31;;;;;;;21.13;5.75;;;;;;;;;;4937809;29;20039;-69
2022/06/22 06:45:57;;;;;;;24.63;5.18;;;;;;;;;;4947754;29;20051;-69
2022/06/22 06:48:25;;;;;;;21.83;5.00;;;;;;;;;;4940342;29;20031;-69
2022/06/22 06:50:57;;;;;;;28.13;5.07;;;;;;;;;;4941082;29;20098;-69
2022/06/22 06:53:24;;;;;;;31.05;6.35;;;;;;;;;;4938688;29;20041;-69
2022/06/22 06:55:52;;;;;;;22.90;5.13;;;;;;;;;;4938850;29;20030;-68
2022/06/22 06:58:25;;;;;;;20.25;5.20;;;;;;;;;;4937197;29;20031;-68
2022/06/22 07:00:51;;;;;;;27.50;5.07;;;;;;;;;;4947578;29;20061;-69
2022/06/22 07:03:21;;;;;;;28.25;5.63;;;;;;;;;;4937390;29;20043;-69
2022/06/22 07:05:48;;;;;;;27.58;5.45;;;;;;;;;;4929055;29;20032;-65
2022/06/22 07:08:22;;;;;;;28.23;5.63;;;;;;;;;;4934995;29;20023;-66
2022/06/22 07:10:55;;;;;;;29.92;5.57;;;;;;;;;;4943596;29;20027;-68
2022/06/22 07:13:21;;;;;;;22.77;4.93;;;;;;;;;;4933431;29;20090;-68
2022/06/22 07:15:51;;;;;;;25.70;4.88;;;;;;;;;;4939128;29;20031;-68
2022/06/22 07:18:21;;;;;;;25.88;4.80;;;;;;;;;;4950610;29;20030;-67
2022/06/22 07:20:49;;;;;;;24.85;4.97;;;;;;;;;;4939565;29;20036;-69
2022/06/22 07:23:22;;;;;;;20.33;4.70;;;;;;;;;;4937763;29;20050;-69
2022/06/22 07:25:58;;;;;;;22.42;5.57;;;;;;;;;;4938692;29;20023;-70
2022/06/22 07:28:32;;;;;;;26.67;5.25;;;;;;;;;;4937168;29;20392;-68
2022/06/22 07:30:58;;;;;;;27.13;4.80;;;;;;;;;;4945429;29;20027;-69
2022/06/22 07:33:32;;;;;;;23.75;4.72;;;;;;;;;;4945086;28;20571;-69
2022/06/22 07:36:01;;;;;;;27.25;4.97;;;;;;;;;;4938192;29;20024;-73
2022/06/22 07:38:30;;;;;;;26.23;5.30;;;;;;;;;;4938570;29;20028;-69
2022/06/22 07:43:42;;;;;;;30.30;5.20;;;;;;;;;;4941377;29;20039;-71
2022/06/22 07:46:10;;;;;;;31.08;5.90;;;;;;;;;;4934624;29;20082;-68
2022/06/22 07:48:39;;;;;;;31.73;5.22;;;;;;;;;;4953487;29;20034;-66
2022/06/22 07:51:07;;;;;;;32.75;5.40;;;;;;;;;;4920218;29;20042;-66
2022/06/22 07:53:37;;;;;;;26.50;5.85;;;;;;;;;;4940971;29;20023;-66
2022/06/22 07:56:12;;;;;;;28.15;5.40;;;;;;;;;;4945051;29;20032;-66
2022/06/22 07:58:38;;;;;;;31.58;5.13;;;;;;;;;;4937639;29;20023;-65
2022/06/22 08:01:09;;;;;;;25.65;5.07;;;;;;;;;;4932522;29;20073;-66
2022/06/22 08:03:38;;;;;;;28.25;4.95;;;;;;;;;;4927068;29;20491;-66
2022/06/22 08:06:07;;;;;;;31.15;5.32;;;;;;;;;;4927858;29;20046;-65
2022/06/22 08:08:43;;;;;;;25.25;5.07;;;;;;;;;;4938532;29;20042;-66
2022/06/22 08:11:09;;;;;;;33.03;4.95;;;;;;;;;;4944334;29;20032;-67
2022/06/22 08:13:39;;;;;;;24.30;5.43;;;;;;;;;;4918660;29;20027;-65
2022/06/22 08:16:09;;;;;;;28.13;5.23;;;;;;;;;;4928523;29;20027;-66
2022/06/22 08:18:36;;;;;;;28.60;5.33;;;;;;;;;;4930012;29;20483;-65
2022/06/22 08:21:02;;;;;;;29.70;5.50;;;;;;;;;;4936857;29;20027;-66
2022/06/22 08:23:31;;;;;;;26.52;5.40;;;;;;;;;;4930291;29;20035;-67
2022/06/22 08:25:58;;;;;;;28.55;5.47;;;;;;;;;;4929843;29;20024;-67
2022/06/22 08:28:25;;;;;;;36.17;6.32;;;;;;;;;;4931421;29;20043;-67
2022/06/22 08:30:53;;;;;;;34.53;6.10;;;;;;;;;;4934257;29;20027;-66
2022/06/22 08:33:38;;;;;;;35.25;5.95;;;;;;;;;;4926172;29;20067;-66
2022/06/22 08:36:08;;;;;;;31.00;5.88;;;;;;;;;;4932317;29;20031;-66
2022/06/22 08:38:35;;;;;;;32.60;6.32;;;;;;;;;;4929747;29;20028;-67
2022/06/22 08:41:07;;;;;;;33.70;6.07;;;;;;;;;;4927174;29;20478;-66
2022/06/22 08:43:39;;;;;;;34.10;6.28;;;;;;;;;;4934175;29;20042;-66
2022/06/22 08:46:14;;;;;;;44.90;5.70;;;;;;;;;;4934962;29;20416;-66
2022/06/22 08:48:59;;;;;;;30.75;5.40;;;;;;;;;;4935779;29;20437;-66
2022/06/22 08:51:32;;;;;;;41.35;5.97;;;;;;;;;;4935521;29;20039;-66
2022/06/22 08:53:58;;;;;;;28.50;6.13;;;;;;;;;;4935923;29;20024;-66
2022/06/22 08:56:38;;;;;;;31.90;5.68;;;;;;;;;;4930906;29;20031;-67
2022/06/22 08:59:07;;;;;;;24.15;5.68;;;;;;;;;;4934669;29;20024;-67
2022/06/22 09:01:52;;;;;;;29.85;5.15;;;;;;;;;;4933402;29;20034;-66
2022/06/22 09:04:28;;;;;;;27.13;5.25;;;;;;;;;;4936450;29;20039;-67
2022/06/22 09:07:09;;;;;;;31.40;6.13;;;;;;;;;;4946418;29;20040;-67
2022/06/22 09:09:52;;;;;;;39.53;6.15;;;;;;;;;;4934852;29;20049;-66
2022/06/22 09:12:23;;;;;;;27.73;5.97;;;;;;;;;;4938964;29;20416;-66
2022/06/22 09:15:07;;;;;;;31.55;5.65;;;;;;;;;;4940357;29;20444;-66
2022/06/22 09:17:36;;;;;;;30.85;5.65;;;;;;;;;;4938078;29;20035;-67
2022/06/22 09:20:14;;;;;;;34.65;6.22;;;;;;;;;;4939974;29;20043;-67
2022/06/22 09:22:50;;;;;;;32.55;6.05;;;;;;;;;;4930129;29;20173;-67
2022/06/22 09:25:27;;;;;;;31.20;5.75;;;;;;;;;;4937734;29;20042;-67
2022/06/22 09:27:59;;;;;;;26.02;5.57;;;;;;;;;;4937363;29;20044;-66
2022/06/22 09:30:29;;;;;;;35.88;5.82;;;;;;;;;;4941548;29;20028;-67
2022/06/22 09:33:08;;;;;;;34.53;6.40;;;;;;;;;;4940776;29;20035;-66
2022/06/22 09:35:38;;;;;;;33.60;5.60;;;;;;;;;;4940969;29;20500;-66
2022/06/22 09:38:13;;;;;;;32.58;6.07;;;;;;;;;;4928745;29;20039;-66
2022/06/22 09:40:46;;;;;;;30.42;5.50;;;;;;;;;;4934301;29;20023;-67
2022/06/22 09:43:30;;;;;;;35.63;6.57;;;;;;;;;;4933553;29;20039;-67
2022/06/22 09:46:15;;;;;;;39.75;6.28;;;;;;;;;;4935914;29;20455;-67
2022/06/22 09:49:00;;;;;;;34.03;5.93;;;;;;;;;;4933700;29;20024;-66
2022/06/22 09:51:45;;;;;;;31.50;5.80;;;;;;;;;;4934828;29;20032;-66
2022/06/22 09:57:21;;;;;;;32.80;5.63;;;;;;;;;;4939775;29;20075;-66
2022/06/22 09:59:55;;;;;;;27.58;5.43;;;;;;;;;;4931989;29;20030;-66
2022/06/22 10:02:22;;;;;;;31.60;5.72;;;;;;;;;;4938850;29;20040;-66
2022/06/22 10:04:48;;;;;;;38.65;5.65;;;;;;;;;;4932030;29;20042;-66
2022/06/22 10:07:31;;;;;;;28.52;6.35;;;;;;;;;;4936804;29;20527;-66
2022/06/22 10:10:02;;;;;;;29.95;5.60;;;;;;;;;;4936463;29;20054;-66
2022/06/22 10:12:47;;;;;;;42.10;6.55;;;;;;;;;;4940419;29;20054;-66
2022/06/22 10:15:32;;;;;;;37.05;6.00;;;;;;;;;;4940670;29;20407;-66
2022/06/22 10:17:58;;;;;;;30.58;6.13;;;;;;;;;;4940089;29;20020;-66
2022/06/22 10:20:44;;;;;;;41.58;5.90;;;;;;;;;;4938680;29;20415;-66
2022/06/22 10:23:10;;;;;;;30.48;5.65;;;;;;;;;;4939751;29;20039;-66
2022/06/22 10:25:36;;;;;;;29.30;6.05;;;;;;;;;;4940012;29;20030;-66
2022/06/22 10:28:18;;;;;;;26.20;5.25;;;;;;;;;;4935780;29;20373;-66
2022/06/22 10:31:03;;;;;;;30.63;5.18;;;;;;;;;;4948786;29;20031;-66
2022/06/22 10:33:45;;;;;;;31.67;4.80;;;;;;;;;;4940450;29;20035;-66
2022/06/22 10:36:20;;;;;;;25.80;4.85;;;;;;;;;;4939047;29;20038;-66
2022/06/22 10:38:59;;;;;;;22.75;5.15;;;;;;;;;;4939544;29;20027;-66
2022/06/22 10:47:30;;;;;;;25.80;5.13;;;;;;;;;;4939287;29;20388;-65
2022/06/22 10:50:04;;;;;;;25.92;4.78;;;;;;;;;;4939126;29;20035;-66
2022/06/22 10:52:43;;;;;;;26.42;5.47;;;;;;;;;;4938728;29;20027;-66
2022/06/22 10:55:19;;;;;;;24.10;4.93;;;;;;;;;;4921491;29;20431;-66
2022/06/22 10:57:54;;;;;;;25.33;4.70;;;;;;;;;;4937743;29;20024;-66
2022/06/22 11:00:50;;;;;;;24.00;4.50;;;;;;;;;;4938986;29;20272;-67
2022/06/22 11:03:17;;;;;;;25.08;5.07;;;;;;;;;;4873684;29;20049;-66
2022/06/22 11:06:02;;;;;;;24.45;5.13;;;;;;;;;;4874919;29;20502;-66
2022/06/22 11:08:47;;;;;;;23.80;4.47;;;;;;;;;;4875328;29;20041;-66
2022/06/22 11:11:32;;;;;;;27.75;5.05;;;;;;;;;;4875965;29;20049;-66
2022/06/22 11:14:13;;;;;;;22.45;4.53;;;;;;;;;;4873025;29;20045;-66
2022/06/22 11:16:48;;;;;;;24.05;4.07;;;;;;;;;;4874965;29;20037;-66
2022/06/22 11:19:40;;;;;;;20.23;4.30;;;;;;;;;;4874992;29;20041;-66
2022/06/22 11:22:15;;;;;;;24.60;4.55;;;;;;;;;;4871065;29;20049;-66
2022/06/22 11:24:45;;;;;;;20.17;4.90;;;;;;;;;;4874709;29;20037;-67
2022/06/22 11:33:01;;;;;;;28.63;5.23;;;;;;;;;;4874725;29;20049;-66
2022/06/22 11:35:40;;;;;;;24.33;5.15;;;;;;;;;;4875038;29;20033;-66
2022/06/22 11:38:10;;;;;;;31.67;5.45;;;;;;;;;;4879762;29;20043;-67
2022/06/22 11:40:39;;;;;;;29.63;6.10;;;;;;;;;;4929889;29;20034;-65
2022/06/22 11:43:11;;;;;;;27.90;6.07;;;;;;;;;;4919121;29;20408;-67
2022/06/22 11:45:50;;;;;;;33.10;6.32;;;;;;;;;;4936828;29;20430;-66
2022/06/22 11:48:23;;;;;;;35.13;6.07;;;;;;;;;;4935175;29;20031;-66
2022/06/22 11:51:07;;;;;;;28.20;5.63;;;;;;;;;;4930725;29;20023;-65
2022/06/22 11:53:45;;;;;;;26.45;5.88;;;;;;;;;;4932933;29;20085;-66
2022/06/22 11:56:27;;;;;;;28.42;6.57;;;;;;;;;;4938956;29;20231;-64
2022/06/22 11:59:17;;;;;;;28.42;6.18;;;;;;;;;;4929436;29;20058;-66
2022/06/22 12:01:52;;;;;;;30.17;6.43;;;;;;;;;;4927406;29;20053;-67
2022/06/22 12:04:19;;;;;;;34.20;6.72;;;;;;;;;;4935199;29;20028;-66
2022/06/22 12:06:45;;;;;;;27.08;5.93;;;;;;;;;;4932962;29;20399;-66
2022/06/22 12:09:14;;;;;;;28.23;5.88;;;;;;;;;;4937864;29;20518;-66
2022/06/22 12:11:59;;;;;;;26.88;6.60;;;;;;;;;;4935905;29;20398;-66
2022/06/22 12:17:20;;;;;;;30.58;6.00;;;;;;;;;;4918135;29;20054;-67
2022/06/22 12:20:05;;;;;;;29.80;7.28;;;;;;;;;;4918082;29;20024;-67
2022/06/22 12:22:34;;;;;;;35.33;7.22;;;;;;;;;;4917006;29;20050;-66
2022/06/22 12:25:01;;;;;;;37.10;7.05;;;;;;;;;;4929997;29;20038;-66
2022/06/22 12:27:32;;;;;;;39.80;7.28;;;;;;;;;;4919049;29;20385;-67
2022/06/22 12:30:37;;;;;;;31.45;7.10;;;;;;;;;;4918340;29;20028;-65
2022/06/22 12:33:13;;;;;;;31.55;6.45;;;;;;;;;;4885469;29;20120;-65
2022/06/22 12:35:42;;;;;;;36.35;6.82;;;;;;;;;;4886751;29;20547;-67
2022/06/22 12:38:17;;;;;;;28.58;6.25;;;;;;;;;;4875510;29;20036;-66
2022/06/22 12:40:55;;;;;;;34.38;5.93;;;;;;;;;;4875286;29;20044;-66
2022/06/22 12:43:25;;;;;;;42.88;7.30;;;;;;;;;;4875867;29;20208;-66
2022/06/22 12:45:53;;;;;;;42.95;7.10;;;;;;;;;;4867287;29;20022;-66
2022/06/22 12:48:19;;;;;;;27.33;5.82;;;;;;;;;;4869194;29;20037;-65
2022/06/22 12:50:53;;;;;;;35.10;7.05;;;;;;;;;;4854889;29;20049;-65
2022/06/22 12:53:25;;;;;;;35.72;6.90;;;;;;;;;;4874551;29;20043;-66
2022/06/22 12:55:54;;;;;;;33.17;7.22;;;;;;;;;;4870316;29;20039;-64
2022/06/22 12:58:27;;;;;;;39.72;7.30;;;;;;;;;;4872244;29;20059;-65
2022/06/22 13:00:56;;;;;;;36.03;7.22;;;;;;;;;;4859885;29;20033;-66
2022/06/22 13:03:28;;;;;;;32.50;7.03;;;;;;;;;;4885059;29;20062;-66
2022/06/22 13:05:54;;;;;;;29.45;6.47;;;;;;;;;;4907691;29;20400;-65
2022/06/22 13:08:24;;;;;;;32.78;6.68;;;;;;;;;;4911238;29;20033;-66
2022/06/22 13:10:56;;;;;;;32.92;6.00;;;;;;;;;;4913144;29;20032;-66
2022/06/22 13:13:29;;;;;;;39.13;6.50;;;;;;;;;;4931247;29;20035;-66
2022/06/22 13:15:58;;;;;;;32.20;6.35;;;;;;;;;;4931046;29;20036;-66
2022/06/22 13:18:42;;;;;;;32.17;6.40;;;;;;;;;;4930421;29;20032;-65
2022/06/22 13:21:16;;;;;;;31.98;6.13;;;;;;;;;;4932904;29;20377;-67
2022/06/22 13:23:47;;;;;;;33.70;6.70;;;;;;;;;;4934567;29;20035;-67
2022/06/22 13:26:13;;;;;;;32.83;6.30;;;;;;;;;;4925465;29;20651;-67
2022/06/22 13:28:45;;;;;;;33.88;6.68;;;;;;;;;;4930365;29;20039;-66
2022/06/22 13:31:21;;;;;;;36.85;6.38;;;;;;;;;;4931886;29;20031;-66
2022/06/22 13:33:56;;;;;;;29.38;6.22;;;;;;;;;;4941829;29;20028;-66
2022/06/22 13:36:28;;;;;;;24.48;5.95;;;;;;;;;;4936996;29;20098;-67
2022/06/22 13:39:01;;;;;;;29.83;5.82;;;;;;;;;;4939280;29;20038;-66
2022/06/22 13:41:31;;;;;;;39.70;6.85;;;;;;;;;;4936863;29;20027;-67
2022/06/22 13:44:01;;;;;;;38.10;6.13;;;;;;;;;;4930453;29;20048;-66
2022/06/22 13:46:46;;;;;;;26.33;5.45;;;;;;;;;;4932692;29;20024;-67
2022/06/22 13:49:17;;;;;;;36.22;6.03;;;;;;;;;;4933920;29;20034;-67
2022/06/22 13:51:50;;;;;;;43.72;7.38;;;;;;;;;;4930082;29;20020;-67
2022/06/22 13:54:52;;;;;;;40.47;7.63;;;;;;;;;;4941135;29;20028;-66
2022/06/22 13:57:23;;;;;;;39.38;6.70;;;;;;;;;;4928172;29;20042;-66
2022/06/22 13:59:58;;;;;;;38.05;6.15;;;;;;;;;;4919835;29;20098;-67
2022/06/22 14:02:31;;;;;;;49.17;7.43;;;;;;;;;;4926218;29;20539;-67
2022/06/22 14:05:03;;;;;;;41.80;7.03;;;;;;;;;;4927540;29;20046;-67
2022/06/22 14:07:38;;;;;;;39.08;7.82;;;;;;;;;;4912742;29;20616;-66
2022/06/22 14:10:19;;;;;;;46.88;8.85;;;;;;;;;;4913527;29;20043;-66
2022/06/22 14:12:48;;;;;;;42.67;8.98;;;;;;;;;;4928874;29;20058;-66
2022/06/22 14:15:15;;;;;;;39.85;8.25;;;;;;;;;;4931748;29;20114;-66
2022/06/22 14:17:48;;;;;;;35.75;8.07;;;;;;;;;;4928039;29;20649;-66
2022/06/22 14:20:23;;;;;;;38.47;7.63;;;;;;;;;;4927905;29;20046;-66
2022/06/22 14:22:52;;;;;;;36.40;6.90;;;;;;;;;;4928321;29;20139;-67
2022/06/22 14:25:24;;;;;;;29.45;5.90;;;;;;;;;;4927272;29;20513;-65
2022/06/22 14:28:05;;;;;;;32.88;6.60;;;;;;;;;;4929554;29;20447;-66
2022/06/22 14:30:50;;;;;;;30.83;6.18;;;;;;;;;;4938256;29;20053;-66
2022/06/22 14:33:22;;;;;;;36.38;7.22;;;;;;;;;;4938634;29;20027;-66
2022/06/22 14:36:18;;;;;;;24.00;4.32;;;;;;;;;;4940416;29;20032;-66
2022/06/22 14:39:11;;;;;;;18.23;4.22;;;;;;;;;;4927446;29;20412;-66
2022/06/22 14:41:39;;;;;;;15.18;3.85;;;;;;;;;;4936674;28;20039;-66
2022/06/22 14:44:18;;;;;;;15.23;3.55;;;;;;;;;;4939760;29;20504;-66
2022/06/22 14:47:03;;;;;;;15.82;3.17;;;;;;;;;;4939880;29;20027;-66
2022/06/22 14:49:32;;;;;;;15.95;3.83;;;;;;;;;;4938728;29;20019;-66
2022/06/22 14:51:59;;;;;;;15.65;3.38;;;;;;;;;;4936093;29;20031;-66
2022/06/22 14:54:40;;;;;;;11.40;3.38;;;;;;;;;;4940485;29;20037;-66
2022/06/22 14:57:30;;;;;;;17.00;2.85;;;;;;;;;;4939825;29;20020;-66
2022/06/22 14:59:56;;;;;;;18.20;4.43;;;;;;;;;;4932028;29;20031;-66
2022/06/22 15:02:41;;;;;;;19.48;3.75;;;;;;;;;;4937266;29;20024;-66
2022/06/22 15:05:17;;;;;;;17.63;4.00;;;;;;;;;;4939714;29;20034;-72
2022/06/22 15:07:49;;;;;;;14.50;4.32;;;;;;;;;;4939847;29;20034;-72
2022/06/22 15:10:26;;;;;;;16.02;4.28;;;;;;;;;;4936436;29;20024;-72
2022/06/22 15:13:00;;;;;;;16.92;4.13;;;;;;;;;;4936505;29;20058;-72
2022/06/22 15:15:29;;;;;;;14.13;3.65;;;;;;;;;;4940189;29;20456;-72
2022/06/22 15:17:59;;;;;;;17.98;4.13;;;;;;;;;;4939294;29;20016;-72
2022/06/22 15:20:51;;;;;;;13.50;3.22;;;;;;;;;;4939538;29;20447;-72
2022/06/22 15:23:20;;;;;;;14.25;3.10;;;;;;;;;;4936556;29;20091;-72
2022/06/22 15:26:06;;;;;;;14.65;3.33;;;;;;;;;;4938978;29;20022;-72
2022/06/22 15:28:32;;;;;;;20.33;3.63;;;;;;;;;;4938711;29;20023;-72
2022/06/22 15:31:06;;;;;;;13.35;3.42;;;;;;;;;;4935636;29;20039;-72
2022/06/22 15:33:33;;;;;;;16.05;3.83;;;;;;;;;;4946791;29;20062;-72
2022/06/22 15:36:08;;;;;;;24.38;3.90;;;;;;;;;;4939181;29;20504;-72
2022/06/22 15:38:35;;;;;;;11.95;3.35;;;;;;;;;;4939336;29;20036;-71
2022/06/22 15:41:01;;;;;;;11.65;3.40;;;;;;;;;;4938787;29;20403;-72
2022/06/22 15:43:46;;;;;;;14.57;3.50;;;;;;;;;;4937556;29;20046;-72
2022/06/22 15:46:21;;;;;;;15.95;4.25;;;;;;;;;;4921865;29;20035;-72
2022/06/22 15:48:48;;;;;;;14.90;3.80;;;;;;;;;;4936809;29;20034;-72
2022/06/22 15:51:20;;;;;;;13.25;3.80;;;;;;;;;;4939451;29;20090;-71
2022/06/22 15:53:58;;;;;;;21.92;4.20;;;;;;;;;;4938135;28;20026;-72
2022/06/22 15:56:43;;;;;;;21.67;4.80;;;;;;;;;;4938860;29;20571;-72
2022/06/22 15:59:34;;;;;;;22.13;4.85;;;;;;;;;;4938994;29;20063;-72
2022/06/22 16:02:19;;;;;;;21.08;5.55;;;;;;;;;;4875369;29;20103;-72
2022/06/22 16:04:57;;;;;;;15.68;4.40;;;;;;;;;;4875708;29;20045;-72
2022/06/22 16:07:28;;;;;;;14.80;4.03;;;;;;;;;;4875773;29;20498;-71
2022/06/22 16:09:57;;;;;;;18.67;4.50;;;;;;;;;;4875380;29;20498;-72
2022/06/22 16:15:27;;;;;;;13.98;3.42;;;;;;;;;;4875197;29;20088;-72
2022/06/22 16:17:54;;;;;;;14.50;3.70;;;;;;;;;;4875508;29;20042;-72
2022/06/22 16:20:41;;;;;;;13.20;3.47;;;;;;;;;;4875759;29;20048;-72
2022/06/22 16:23:12;;;;;;;15.85;4.07;;;;;;;;;;4875128;29;20096;-72
2022/06/22 16:25:47;;;;;;;13.20;3.95;;;;;;;;;;4876234;29;20055;-72
2022/06/22 16:28:18;;;;;;;16.67;4.43;;;;;;;;;;4875567;29;20571;-72
2022/06/22 16:30:59;;;;;;;11.82;4.03;;;;;;;;;;4875657;29;20039;-72
2022/06/22 16:33:38;;;;;;;14.52;3.97;;;;;;;;;;4876093;29;20057;-72
2022/06/22 16:36:10;;;;;;;15.30;3.88;;;;;;;;;;4865418;29;20048;-72
2022/06/22 16:38:50;;;;;;;14.73;3.47;;;;;;;;;;4885853;29;20039;-72
2022/06/22 16:41:22;;;;;;;16.35;4.13;;;;;;;;;;4933235;29;20034;-72
2022/06/22 16:44:14;;;;;;;9.90;3.85;;;;;;;;;;4938523;29;20045;-72
2022/06/22 16:47:04;;;;;;;17.38;4.90;;;;;;;;;;4936034;29;20035;-72
2022/06/22 16:49:38;;;;;;;15.00;4.82;;;;;;;;;;4930289;29;20035;-72
2022/06/22 16:52:06;;;;;;;26.15;5.53;;;;;;;;;;4933505;29;20019;-72
2022/06/22 16:54:34;;;;;;;20.35;5.22;;;;;;;;;;4945723;29;20043;-72
2022/06/22 16:57:03;;;;;;;18.42;4.72;;;;;;;;;;4938483;29;20020;-72
2022/06/22 16:59:37;;;;;;;15.25;4.28;;;;;;;;;;4921274;29;20038;-72
2022/06/22 17:02:06;;;;;;;19.48;4.95;;;;;;;;;;4937941;29;20399;-71
2022/06/22 17:04:33;;;;;;;15.90;4.65;;;;;;;;;;4938376;29;20074;-72
2022/06/22 17:07:07;;;;;;;18.13;4.35;;;;;;;;;;4938322;29;20083;-72
2022/06/22 17:09:42;;;;;;;11.73;4.43;;;;;;;;;;4932323;29;20042;-72
2022/06/22 17:12:10;;;;;;;23.50;4.80;;;;;;;;;;4941249;29;20058;-72
2022/06/22 17:14:38;;;;;;;17.45;4.65;;;;;;;;;;4941910;29;20034;-72
2022/06/22 17:17:19;;;;;;;13.93;3.97;;;;;;;;;;4941677;29;20023;-72
2022/06/22 17:19:56;;;;;;;18.45;4.80;;;;;;;;;;4941522;29;20078;-72
2022/06/22 17:22:28;;;;;;;17.33;4.15;;;;;;;;;;4939169;29;20028;-72
2022/06/22 17:25:00;;;;;;;17.73;4.40;;;;;;;;;;4938522;29;20031;-72
2022/06/22 17:27:26;;;;;;;21.20;5.22;;;;;;;;;;4941896;29;20485;-72
2022/06/22 17:29:53;;;;;;;24.83;5.32;;;;;;;;;;4941294;29;20373;-72
2022/06/22 17:32:28;;;;;;;20.90;5.30;;;;;;;;;;4941657;29;20038;-72
2022/06/22 17:35:00;;;;;;;18.15;4.57;;;;;;;;;;4940905;29;20026;-72
2022/06/22 17:37:29;;;;;;;16.48;4.30;;;;;;;;;;4939817;29;20491;-72
2022/06/22 17:40:11;;;;;;;15.88;4.30;;;;;;;;;;4938317;29;20043;-72
2022/06/22 17:42:40;;;;;;;14.63;3.42;;;;;;;;;;4949151;29;20041;-72
2022/06/22 17:45:13;;;;;;;12.95;3.47;;;;;;;;;;4941404;29;20536;-72
2022/06/22 17:47:42;;;;;;;13.73;3.88;;;;;;;;;;4941281;29;20030;-72
2022/06/22 17:50:22;;;;;;;17.00;5.38;;;;;;;;;;4940559;29;20023;-72
2022/06/22 17:52:52;;;;;;;16.42;5.50;;;;;;;;;;4941231;29;20045;-72
2022/06/22 17:55:26;;;;;;;20.40;4.90;;;;;;;;;;4938230;29;20100;-72
2022/06/22 17:57:54;;;;;;;15.52;5.30;;;;;;;;;;4938119;29;20477;-72
2022/06/22 18:00:21;;;;;;;22.20;5.40;;;;;;;;;;4941439;29;20388;-72
2022/06/22 18:03:01;;;;;;;14.93;4.43;;;;;;;;;;4940725;29;20040;-72
2022/06/22 18:05:34;;;;;;;19.85;4.65;;;;;;;;;;4940408;29;20032;-72
2022/06/22 18:08:05;;;;;;;16.65;5.55;;;;;;;;;;4940850;29;20031;-72
2022/06/22 18:10:31;;;;;;;24.33;6.93;;;;;;;;;;4939408;29;20019;-72
2022/06/22 18:12:58;;;;;;;18.15;5.30;;;;;;;;;;4937243;29;20055;-72
2022/06/22 18:15:27;;;;;;;22.02;5.63;;;;;;;;;;4941113;29;20042;-72
2022/06/22 18:17:58;;;;;;;14.90;5.18;;;;;;;;;;4940221;29;20030;-72
2022/06/22 18:20:27;;;;;;;20.88;7.72;;;;;;;;;;4940142;29;20035;-72
2022/06/22 18:22:57;;;;;;;28.27;7.30;;;;;;;;;;4940323;29;20157;-72
2022/06/22 18:25:29;;;;;;;17.48;4.35;;;;;;;;;;4938608;29;20019;-72
2022/06/22 18:27:58;;;;;;;11.88;3.17;;;;;;;;;;4937133;29;20024;-72
2022/06/22 18:30:43;;;;;;;17.90;4.25;;;;;;;;;;4940875;29;20032;-72
2022/06/22 18:33:14;;;;;;;15.15;4.53;;;;;;;;;;4939914;29;20399;-72
2022/06/22 18:35:44;;;;;;;15.65;4.13;;;;;;;;;;4940250;29;20421;-72
2022/06/22 18:44:13;;;;;;;12.07;3.30;;;;;;;;;;4876924;29;20454;-73
2022/06/22 18:46:55;;;;;;;8.65;3.05;;;;;;;;;;4877327;29;20037;-73
2022/06/22 18:49:28;;;;;;;15.15;3.00;;;;;;;;;;4876833;29;20029;-73
2022/06/22 18:52:13;;;;;;;9.48;3.47;;;;;;;;;;4876858;29;20052;-73
2022/06/22 18:54:45;;;;;;;9.13;2.63;;;;;;;;;;4877258;29;20031;-73
2022/06/22 18:57:23;;;;;;;19.27;4.13;;;;;;;;;;4865013;29;20051;-73
2022/06/22 18:59:51;;;;;;;30.92;7.10;;;;;;;;;;4875334;29;20045;-72
2022/06/22 19:02:26;;;;;;;25.15;6.32;;;;;;;;;;4876471;29;20068;-73
2022/06/22 19:04:56;;;;;;;18.17;5.05;;;;;;;;;;4876687;29;20063;-72
2022/06/22 19:07:23;;;;;;;18.63;5.50;;;;;;;;;;4876809;29;20568;-73
2022/06/22 19:09:53;;;;;;;18.98;4.93;;;;;;;;;;4877071;29;20063;-73
2022/06/22 19:12:28;;;;;;;19.37;5.23;;;;;;;;;;4875385;29;20053;-72
2022/06/22 19:15:02;;;;;;;19.77;5.95;;;;;;;;;;4876619;29;20067;-72
2022/06/22 19:17:47;;;;;;;16.95;5.82;;;;;;;;;;4887693;29;20036;-73
2022/06/22 19:20:14;;;;;;;23.02;6.43;;;;;;;;;;4933123;29;20500;-72
2022/06/22 19:22:48;;;;;;;26.02;7.28;;;;;;;;;;4939513;29;20049;-73
2022/06/22 19:25:14;;;;;;;26.45;7.35;;;;;;;;;;4936052;29;20024;-72
2022/06/22 19:27:42;;;;;;;22.27;7.10;;;;;;;;;;4936845;29;20086;-73
2022/06/22 19:30:13;;;;;;;20.05;6.95;;;;;;;;;;4939654;29;20042;-72
2022/06/22 19:33:18;;;;;;;23.40;7.05;;;;;;;;;;4939116;29;20082;-72
2022/06/22 19:35:55;;;;;;;17.33;7.03;;;;;;;;;;4876282;29;20036;-72
2022/06/22 19:38:47;;;;;;;24.40;7.25;;;;;;;;;;4876692;29;20040;-72
2022/06/22 19:41:23;;;;;;;22.23;6.95;;;;;;;;;;4876009;29;20044;-73
2022/06/22 19:43:57;;;;;;;18.40;7.40;;;;;;;;;;4876013;29;20516;-72
2022/06/22 19:46:32;;;;;;;28.15;7.28;;;;;;;;;;4875934;29;20041;-72
2022/06/22 19:49:17;;;;;;;23.60;5.72;;;;;;;;;;4876155;29;20482;-73
2022/06/22 19:51:47;;;;;;;21.17;5.72;;;;;;;;;;4876274;29;20043;-73
2022/06/22 19:54:30;;;;;;;18.80;5.60;;;;;;;;;;4863903;29;20053;-72
2022/06/22 19:57:01;;;;;;;16.63;5.32;;;;;;;;;;4875202;29;20084;-72
2022/06/22 19:59:35;;;;;;;19.13;6.78;;;;;;;;;;4875736;29;20525;-72
2022/06/22 20:02:07;;;;;;;21.90;6.20;;;;;;;;;;4875360;29;20061;-72
2022/06/22 20:04:42;;;;;;;16.02;6.35;;;;;;;;;;4875685;29;20045;-72
2022/06/22 20:07:18;;;;;;;26.38;6.95;;;;;;;;;;4910490;29;20024;-72
2022/06/22 20:09:54;;;;;;;26.65;6.60;;;;;;;;;;4937472;29;20032;-73
2022/06/22 20:12:27;;;;;;;20.13;4.85;;;;;;;;;;4937564;29;20039;-72
2022/06/22 20:15:16;;;;;;;21.48;5.28;;;;;;;;;;4938316;29;20453;-73
2022/06/22 20:17:53;;;;;;;12.52;4.13;;;;;;;;;;4938839;29;20034;-72
2022/06/22 20:20:21;;;;;;;17.08;4.70;;;;;;;;;;4938617;29;20024;-72
2022/06/22 20:22:52;;;;;;;16.25;4.35;;;;;;;;;;4938404;29;20403;-72
2022/06/22 20:25:21;;;;;;;15.77;4.72;;;;;;;;;;4936042;29;20455;-72
2022/06/22 20:28:07;;;;;;;15.70;4.43;;;;;;;;;;4936516;29;20024;-72
2022/06/22 20:30:41;;;;;;;21.40;4.68;;;;;;;;;;4938470;29;20403;-72
2022/06/22 20:33:10;;;;;;;17.73;4.85;;;;;;;;;;4938537;29;20112;-72
2022/06/22 20:35:40;;;;;;;12.43;4.20;;;;;;;;;;4938390;29;20036;-72
2022/06/22 20:38:08;;;;;;;11.10;3.92;;;;;;;;;;4938474;29;20042;-72
2022/06/22 20:40:47;;;;;;;12.63;4.22;;;;;;;;;;4942870;29;20031;-72
2022/06/22 20:43:13;;;;;;;17.08;4.90;;;;;;;;;;4927062;29;20061;-72
2022/06/22 20:45:49;;;;;;;20.05;4.45;;;;;;;;;;4943535;29;20026;-72
2022/06/22 20:48:15;;;;;;;13.27;4.55;;;;;;;;;;4945018;28;20035;-72
2022/06/22 20:50:48;;;;;;;12.82;4.40;;;;;;;;;;4944289;29;20020;-72
2022/06/22 20:53:33;;;;;;;16.95;4.40;;;;;;;;;;4944410;29;20108;-72
2022/06/22 20:56:05;;;;;;;10.73;4.07;;;;;;;;;;4944419;29;20399;-72
2022/06/22 20:58:34;;;;;;;13.35;4.18;;;;;;;;;;4943278;29;20023;-72
2022/06/22 21:01:06;;;;;;;16.98;4.90;;;;;;;;;;4940718;29;20016;-72
2022/06/22 21:03:32;;;;;;;13.77;3.65;;;;;;;;;;4945046;29;20058;-72
2022/06/22 21:06:00;;;;;;;13.00;4.00;;;;;;;;;;4944375;29;20041;-73
2022/06/22 21:08:27;;;;;;;14.07;3.80;;;;;;;;;;4944303;28;20522;-72
2022/06/22 21:11:12;;;;;;;16.70;4.32;;;;;;;;;;4944168;29;20015;-72
2022/06/22 21:13:41;;;;;;;16.23;3.88;;;;;;;;;;4944021;29;20043;-73
2022/06/22 21:16:28;;;;;;;12.98;4.22;;;;;;;;;;4925157;29;20037;-72
2022/06/22 21:18:54;;;;;;;7.47;3.40;;;;;;;;;;4941567;29;20465;-72
2022/06/22 21:21:20;;;;;;;18.42;4.20;;;;;;;;;;4944857;28;20030;-72
2022/06/22 21:23:50;;;;;;;10.70;3.50;;;;;;;;;;4943978;29;20043;-72
2022/06/22 21:26:22;;;;;;;13.50;3.67;;;;;;;;;;4944219;29;20027;-72
2022/06/22 21:32:16;;;;;;;10.88;4.25;;;;;;;;;;4944007;29;20023;-72
2022/06/22 21:34:42;;;;;;;13.57;4.25;;;;;;;;;;4882893;29;20033;-72
2022/06/22 21:37:20;;;;;;;10.25;3.65;;;;;;;;;;4898665;29;20033;-72
2022/06/22 21:39:55;;;;;;;12.95;4.00;;;;;;;;;;4899629;29;20054;-72
2022/06/22 21:42:39;;;;;;;10.73;4.05;;;;;;;;;;4884498;29;20105;-72
2022/06/22 21:45:18;;;;;;;14.88;3.95;;;;;;;;;;4894007;29;20509;-72
2022/06/22 21:48:03;;;;;;;12.15;3.83;;;;;;;;;;4893083;29;20029;-72
2022/06/22 21:50:29;;;;;;;14.65;4.03;;;;;;;;;;4891897;29;20029;-72
2022/06/22 21:53:31;;;;;;;11.18;4.00;;;;;;;;;;4894916;29;20033;-72
2022/06/22 21:56:12;;;;;;;16.85;3.55;;;;;;;;;;4859155;29;20037;-73
2022/06/22 21:58:38;;;;;;;10.02;3.58;;;;;;;;;;4859687;29;20046;-72